createdAt,value
2023-01-15T00:04:43.209Z,7.00
2023-01-15T00:09:46.447Z,7.00
2023-01-15T00:14:51.114Z,7.00
2023-01-15T00:19:54.385Z,6.90
2023-01-15T00:25:14.823Z,6.90
2023-01-15T00:30:19.765Z,7.00
2023-01-15T00:35:24.598Z,7.00
2023-01-15T00:40:27.969Z,7.20
2023-01-15T00:45:32.647Z,7.20
2023-01-15T00:50:35.936Z,7.30
2023-01-15T00:55:39.183Z,7.40
2023-01-15T01:00:43.885Z,7.40
2023-01-15T01:05:47.162Z,7.30
2023-01-15T01:10:50.577Z,7.30
2023-01-15T01:15:55.258Z,7.30
2023-01-15T01:20:58.538Z,7.20
2023-01-15T01:26:01.794Z,7.10
2023-01-15T01:31:08.603Z,7.20
2023-01-15T01:36:12.076Z,7.00
2023-01-15T01:41:15.659Z,6.60
2023-01-15T01:46:20.495Z,6.30
2023-01-15T01:51:27.558Z,6.20
2023-01-15T01:56:34.042Z,6.10
2023-01-15T02:01:38.914Z,6.00
2023-01-15T02:06:43.657Z,6.10
2023-01-15T02:11:46.957Z,6.10
2023-01-15T02:16:57.561Z,6.00
2023-01-15T02:22:11.643Z,6.10
2023-01-15T02:27:20.757Z,6.10
2023-01-15T02:32:38.913Z,6.20
2023-01-15T02:37:47.757Z,6.10
2023-01-15T02:42:55.902Z,6.10
2023-01-15T02:48:03.920Z,6.10
2023-01-15T02:53:11.259Z,6.00
2023-01-15T02:58:20.571Z,6.00
2023-01-15T03:03:35.707Z,6.10
2023-01-15T03:08:39.726Z,6.00
2023-01-15T03:13:52.929Z,6.00
2023-01-15T03:19:02.016Z,6.10
2023-01-15T03:24:07.634Z,6.00
2023-01-15T03:29:14.272Z,5.90
2023-01-15T03:34:18.035Z,5.90
2023-01-15T03:39:23.081Z,5.90
2023-01-15T03:44:46.566Z,6.00
2023-01-15T03:50:00.977Z,6.00
2023-01-15T03:55:17.164Z,6.00
2023-01-15T04:00:35.056Z,5.90
2023-01-15T04:05:40.084Z,5.80
2023-01-15T04:10:53.974Z,5.90
2023-01-15T04:16:00.135Z,5.90
2023-01-15T04:21:05.449Z,5.80
2023-01-15T04:26:11.040Z,5.70
2023-01-15T04:31:15.744Z,5.60
2023-01-15T04:36:19.037Z,7.20
2023-01-15T04:41:40.011Z,5.70
2023-01-15T04:46:46.198Z,5.60
2023-01-15T04:51:49.643Z,5.50
2023-01-15T04:56:55.024Z,5.50
2023-01-15T05:02:06.113Z,5.50
2023-01-15T05:07:11.361Z,5.50
2023-01-15T05:12:14.630Z,5.40
2023-01-15T05:17:19.520Z,5.40
2023-01-15T05:22:22.832Z,5.40
2023-01-15T05:27:26.105Z,5.40
2023-01-15T05:32:31.763Z,5.50
2023-01-15T05:37:35.046Z,5.50
2023-01-15T05:42:38.375Z,5.50
2023-01-15T05:47:43.002Z,5.50
2023-01-15T05:52:46.287Z,5.50
2023-01-15T05:57:49.851Z,5.40
2023-01-15T06:02:54.547Z,5.30
2023-01-15T06:07:58.718Z,5.40
2023-01-15T06:13:03.233Z,5.50
2023-01-15T06:18:08.263Z,5.40
2023-01-15T06:23:11.492Z,5.50
2023-01-15T06:28:14.844Z,5.70
2023-01-15T06:33:19.471Z,5.60
2023-01-15T06:38:22.704Z,5.60
2023-01-15T06:43:43.494Z,5.80
2023-01-15T06:48:48.653Z,5.90
2023-01-15T06:53:51.963Z,5.80
2023-01-15T06:58:56.739Z,5.80
2023-01-15T07:04:01.381Z,5.80
2023-01-15T07:09:05.008Z,5.90
2023-01-15T07:14:08.271Z,5.90
2023-01-15T07:19:13.345Z,5.80
2023-01-15T07:24:17.349Z,5.80
2023-01-15T07:29:20.647Z,5.80
2023-01-15T07:34:25.514Z,5.80
2023-01-15T07:39:31.627Z,5.70
2023-01-15T07:44:52.195Z,5.70
2023-01-15T07:50:04.005Z,5.70
2023-01-15T07:55:08.680Z,5.80
2023-01-15T08:00:15.932Z,5.90
2023-01-15T08:05:20.810Z,6.20
2023-01-15T08:10:25.370Z,6.40
2023-01-15T08:15:30.822Z,6.50
2023-01-15T08:20:37.803Z,6.70
2023-01-15T08:25:41.095Z,6.90
2023-01-15T08:30:44.346Z,7.00
2023-01-15T08:35:49.077Z,7.10
2023-01-15T08:41:02.234Z,7.60
2023-01-15T08:46:06.755Z,7.90
2023-01-15T08:51:13.080Z,8.40
2023-01-15T08:56:17.962Z,8.70
2023-01-15T09:01:21.517Z,10.00
2023-01-15T09:06:26.683Z,10.60
2023-01-15T09:11:29.963Z,10.80
2023-01-15T09:16:33.267Z,10.70
2023-01-15T09:21:37.884Z,11.00
2023-01-15T09:26:41.666Z,10.90
2023-01-15T09:31:44.909Z,11.00
2023-01-15T09:36:50.981Z,11.10
2023-01-15T09:42:08.493Z,11.10
2023-01-15T09:47:17.005Z,10.80
2023-01-15T09:52:32.056Z,10.30
2023-01-15T09:57:36.540Z,9.80
2023-01-15T10:02:44.117Z,9.60
2023-01-15T10:07:57.779Z,9.30
2023-01-15T10:13:09.197Z,8.90
2023-01-15T10:18:16.922Z,8.80
2023-01-15T10:23:37.128Z,8.70
2023-01-15T10:28:59.399Z,8.50
2023-01-15T10:34:22.719Z,8.40
2023-01-15T10:39:35.736Z,8.40
2023-01-15T10:44:47.668Z,8.20
2023-01-15T10:49:52.425Z,8.10
2023-01-15T10:55:09.337Z,8.20
2023-01-15T11:00:13.834Z,8.10
2023-01-15T11:05:19.810Z,7.90
2023-01-15T11:10:24.984Z,8.00
2023-01-15T11:15:45.852Z,7.60
2023-01-15T11:20:50.999Z,7.50
2023-01-15T11:25:59.004Z,7.40
2023-01-15T11:31:03.109Z,7.40
2023-01-15T11:36:08.973Z,7.40
2023-01-15T11:41:22.990Z,7.40
2023-01-15T11:46:48.770Z,7.50
2023-01-15T11:51:52.115Z,7.30
2023-01-15T11:56:57.676Z,7.10
2023-01-15T12:02:04.379Z,7.10
2023-01-15T12:07:14.423Z,7.30
2023-01-15T12:12:32.079Z,7.20
2023-01-15T12:17:59.512Z,7.00
2023-01-15T12:23:34.213Z,6.90
2023-01-15T12:28:45.776Z,6.80
2023-01-15T12:33:55.049Z,7.20
2023-01-15T12:39:01.658Z,7.00
2023-01-15T12:44:28.230Z,7.00
2023-01-15T12:49:38.003Z,7.00
2023-01-15T12:54:48.953Z,7.00
2023-01-15T12:59:59.131Z,7.00
2023-01-15T13:05:17.563Z,6.90
2023-01-15T13:10:23.955Z,6.80
2023-01-15T13:15:34.566Z,6.80
2023-01-15T13:20:45.884Z,6.80
2023-01-15T13:26:03.328Z,6.70
2023-01-15T13:31:24.119Z,6.80
2023-01-15T13:36:32.552Z,6.70
2023-01-15T13:41:54.303Z,6.60
2023-01-15T13:47:05.553Z,6.60
2023-01-15T13:52:21.799Z,6.50
2023-01-15T13:57:27.542Z,6.40
2023-01-15T14:02:34.821Z,6.40
2023-01-15T14:07:39.485Z,6.30
2023-01-15T14:12:51.207Z,6.20
2023-01-15T14:18:14.894Z,6.10
2023-01-15T14:23:53.047Z,6.10
2023-01-15T14:29:07.325Z,6.10
2023-01-15T14:34:17.994Z,6.00
2023-01-15T14:39:35.857Z,6.00
2023-01-15T14:44:43.350Z,5.90
2023-01-15T14:50:00.272Z,5.80
2023-01-15T14:55:03.772Z,5.80
2023-01-15T15:00:11.101Z,5.70
2023-01-15T15:05:19.392Z,5.60
2023-01-15T15:10:27.205Z,5.60
2023-01-15T15:15:40.327Z,5.50
2023-01-15T15:21:00.927Z,5.50
2023-01-15T15:26:07.016Z,5.40
2023-01-15T15:31:11.952Z,5.30
2023-01-15T15:36:16.897Z,5.20
2023-01-15T15:41:40.526Z,5.10
2023-01-15T15:47:08.175Z,5.10
2023-01-15T15:52:24.040Z,5.00
2023-01-15T15:57:30.552Z,4.90
2023-01-15T16:02:38.180Z,4.90
2023-01-15T16:07:42.987Z,4.80
2023-01-15T16:12:48.242Z,4.70
2023-01-15T16:17:52.257Z,4.60
2023-01-15T16:22:58.849Z,4.60
2023-01-15T16:28:03.058Z,4.50
2023-01-15T16:33:08.335Z,4.50
2023-01-15T16:38:21.103Z,4.30
2023-01-15T16:43:26.369Z,4.40
2023-01-15T16:48:38.063Z,6.50
2023-01-15T16:53:43.033Z,4.40
2023-01-15T16:58:46.298Z,4.40
2023-01-15T17:03:49.644Z,4.40
2023-01-15T17:08:55.901Z,4.30
2023-01-15T17:14:11.089Z,4.30
2023-01-15T17:19:14.384Z,4.30
2023-01-15T17:24:19.675Z,4.20
2023-01-15T17:29:22.967Z,4.10
2023-01-15T17:34:26.931Z,4.00
2023-01-15T17:39:31.539Z,4.10
2023-01-15T17:44:34.794Z,4.00
2023-01-15T17:49:38.226Z,7.60
2023-01-15T17:55:00.254Z,4.00
2023-01-15T18:00:21.024Z,4.10
2023-01-15T18:05:30.356Z,4.00
2023-01-15T18:10:35.416Z,4.00
2023-01-15T18:15:38.668Z,3.90
2023-01-15T18:20:41.902Z,4.00
2023-01-15T18:25:47.837Z,4.00
2023-01-15T18:30:51.324Z,4.00
2023-01-15T18:36:03.415Z,3.90
2023-01-15T18:41:13.134Z,3.90
2023-01-15T18:46:33.587Z,4.00
2023-01-15T18:51:36.911Z,4.10
2023-01-15T18:56:42.933Z,4.20
2023-01-15T19:01:46.752Z,4.10
2023-01-15T19:06:50.387Z,4.10
2023-01-15T19:11:55.390Z,4.10
2023-01-15T19:17:16.135Z,4.00
2023-01-15T19:22:36.735Z,3.90
2023-01-15T19:27:41.380Z,3.90
2023-01-15T19:32:44.735Z,3.90
2023-01-15T19:37:48.756Z,3.90
2023-01-15T19:43:12.296Z,3.70
2023-01-15T19:48:35.304Z,3.70
2023-01-15T19:53:40.304Z,3.70
2023-01-15T19:58:45.063Z,3.70
2023-01-15T20:03:48.530Z,3.70
2023-01-15T20:08:52.067Z,3.60
2023-01-15T20:13:56.937Z,3.60
2023-01-15T20:19:00.415Z,3.60
2023-01-15T20:24:03.822Z,3.60
2023-01-15T20:29:08.487Z,3.50
2023-01-15T20:34:11.784Z,3.50
2023-01-15T20:39:16.296Z,3.40
2023-01-15T20:44:38.303Z,3.40
2023-01-15T20:49:41.570Z,3.40
2023-01-15T20:54:44.823Z,3.40
2023-01-15T20:59:49.485Z,3.40
2023-01-15T21:04:53.537Z,3.40
2023-01-15T21:09:56.808Z,3.30
2023-01-15T21:15:01.503Z,3.20
2023-01-15T21:20:06.205Z,3.30
2023-01-15T21:25:10.963Z,3.10
2023-01-15T21:30:16.064Z,3.10
2023-01-15T21:35:20.006Z,3.00
2023-01-15T21:40:23.390Z,3.00
2023-01-15T21:45:28.842Z,3.10
2023-01-15T21:50:32.330Z,2.90
2023-01-15T21:55:35.618Z,2.90
2023-01-15T22:00:40.288Z,2.90
2023-01-15T22:05:43.666Z,3.00
2023-01-15T22:10:46.930Z,3.00
2023-01-15T22:15:56.435Z,3.10
2023-01-15T22:21:00.880Z,3.10
2023-01-15T22:26:04.231Z,3.20
2023-01-15T22:31:08.948Z,3.20
2023-01-15T22:36:14.111Z,3.20
2023-01-15T22:41:37.361Z,3.30
2023-01-15T22:46:42.006Z,3.20
2023-01-15T22:51:45.395Z,3.10
2023-01-15T22:56:48.988Z,3.10
2023-01-15T23:01:53.909Z,3.10
2023-01-15T23:06:57.360Z,3.10
2023-01-15T23:12:00.675Z,3.10
2023-01-15T23:17:05.301Z,3.10
2023-01-15T23:22:08.697Z,3.10
2023-01-15T23:27:13.985Z,3.00
2023-01-15T23:32:18.714Z,3.00
2023-01-15T23:37:22.004Z,2.90
2023-01-15T23:42:44.727Z,3.10
2023-01-15T23:47:49.569Z,2.90
2023-01-15T23:52:52.934Z,0.60
2023-01-15T23:57:56.498Z,2.80
